Time;durP1;ratioP1;P1;durP2;ratioP2;P2;SDS_P1;SDS_P2;PMS_P1;PMS_P2;Temp;Humidity;BMP_temperature;BMP_pressure;BME280_temperature;BME280_humidity;BME280_pressure;Samples;Min_cycle;Max_cycle;Signal;HPM_P1;HPM_P2
2021/04/01 00:01:08;;;;;;;8.37;6.03;;;9.00;50.80;;;;;;5016256;28;20494;-85
2021/04/01 00:03:35;;;;;;;7.30;6.10;;;9.00;51.30;;;;;;5018531;28;20452;-83
2021/04/01 00:06:01;;;;;;;10.13;5.80;;;9.00;51.50;;;;;;5018691;28;20552;-84
2021/04/01 00:08:27;;;;;;;6.90;5.40;;;9.20;51.10;;;;;;5022262;28;20482;-83
2021/04/01 00:10:54;;;;;;;8.90;6.50;;;9.10;51.30;;;;;;5018942;28;20578;-84
2021/04/01 00:13:20;;;;;;;11.10;7.33;;;9.00;51.50;;;;;;5016582;28;20451;-85
2021/04/01 00:15:48;;;;;;;11.03;7.57;;;8.90;51.70;;;;;;5021734;28;20451;-85
2021/04/01 00:18:17;;;;;;;8.33;6.70;;;8.90;51.80;;;;;;5017916;28;20496;-85
2021/04/01 00:20:43;;;;;;;7.83;6.67;;;8.90;51.70;;;;;;5005858;28;20954;-85
2021/04/01 00:23:10;;;;;;;11.33;6.90;;;9.00;51.80;;;;;;5012974;28;20451;-85
2021/04/01 00:25:36;;;;;;;11.00;7.07;;;9.00;52.00;;;;;;5002482;28;20554;-85
2021/04/01 00:28:03;;;;;;;13.57;6.60;;;8.70;52.00;;;;;;5014747;28;20479;-85
2021/04/01 00:30:30;;;;;;;11.03;6.53;;;8.70;52.40;;;;;;5009918;28;20551;-85
2021/04/01 00:32:59;;;;;;;8.33;6.13;;;8.70;52.70;;;;;;5010079;28;20486;-85
2021/04/01 00:35:25;;;;;;;7.27;5.70;;;8.70;52.70;;;;;;5011024;28;20486;-84
2021/04/01 00:37:52;;;;;;;7.60;6.13;;;8.70;52.90;;;;;;5023171;28;20479;-84
2021/04/01 00:40:21;;;;;;;13.70;6.00;;;8.70;53.00;;;;;;5014085;28;20452;-85
2021/04/01 00:42:47;;;;;;;9.17;6.63;;;8.70;53.10;;;;;;5009116;28;20503;-85
2021/04/01 00:45:16;;;;;;;8.03;6.00;;;8.60;52.80;;;;;;5015774;28;20516;-85
2021/04/01 00:47:44;;;;;;;9.93;6.87;;;8.60;53.10;;;;;;5011549;28;20990;-85
2021/04/01 00:50:14;;;;;;;13.87;6.10;;;8.70;53.20;;;;;;5015695;28;20484;-84
2021/04/01 00:52:40;;;;;;;9.07;6.63;;;8.60;53.30;;;;;;5002184;28;20463;-85
2021/04/01 00:55:09;;;;;;;8.73;7.00;;;8.50;53.60;;;;;;5009951;28;20514;-86
2021/04/01 00:57:37;;;;;;;10.40;6.80;;;8.30;53.70;;;;;;5005182;28;20473;-85
2021/04/01 01:00:05;;;;;;;11.77;7.00;;;8.30;54.20;;;;;;5017318;28;20514;-84
2021/04/01 01:02:32;;;;;;;12.17;6.47;;;8.30;54.40;;;;;;5009129;28;20556;-84
2021/04/01 01:05:00;;;;;;;8.20;7.00;;;8.30;54.80;;;;;;5008885;28;20483;-86
2021/04/01 01:07:27;;;;;;;10.17;7.17;;;8.40;54.70;;;;;;5013935;28;20460;-85
2021/04/01 01:09:54;;;;;;;10.97;6.90;;;8.50;54.60;;;;;;5006904;28;20453;-84
2021/04/01 01:12:20;;;;;;;8.33;6.37;;;8.40;54.80;;;;;;5013155;28;20557;-85
2021/04/01 01:14:46;;;;;;;10.90;7.03;;;8.20;54.70;;;;;;5011789;28;20459;-85
2021/04/01 01:17:15;;;;;;;7.40;6.50;;;8.30;55.10;;;;;;5016367;28;20542;-84
2021/04/01 01:19:46;;;;;;;7.90;7.10;;;8.20;55.40;;;;;;5013256;28;20479;-84
2021/04/01 01:22:13;;;;;;;9.17;7.13;;;8.20;55.40;;;;;;5015925;28;20495;-86
2021/04/01 01:24:41;;;;;;;9.73;6.30;;;8.20;55.00;;;;;;5027838;28;20450;-86
2021/04/01 01:27:08;;;;;;;8.80;7.00;;;8.40;56.00;;;;;;5013401;28;20455;-85
2021/04/01 01:29:35;;;;;;;9.17;6.70;;;8.60;54.80;;;;;;5015325;28;20452;-85
2021/04/01 01:32:03;;;;;;;7.73;6.57;;;8.50;54.70;;;;;;5019256;28;21164;-85
2021/04/01 01:34:30;;;;;;;9.17;6.93;;;8.30;55.10;;;;;;5028660;28;20497;-85
2021/04/01 01:36:57;;;;;;;8.50;6.53;;;8.10;55.40;;;;;;5027672;28;20478;-85
2021/04/01 01:39:24;;;;;;;8.90;6.53;;;8.10;56.00;;;;;;5035596;28;20469;-85
2021/04/01 01:41:51;;;;;;;10.50;7.63;;;8.20;56.50;;;;;;5035045;28;20468;-85
2021/04/01 01:44:18;;;;;;;11.40;7.40;;;8.10;55.70;;;;;;5030563;28;20460;-84
2021/04/01 01:46:44;;;;;;;8.50;6.80;;;8.00;55.90;;;;;;5032566;28;20444;-85
2021/04/01 01:49:11;;;;;;;8.00;6.17;;;8.10;56.30;;;;;;5014483;28;20467;-85
2021/04/01 01:51:37;;;;;;;8.53;7.07;;;8.10;56.40;;;;;;5020457;28;20459;-86
2021/04/01 01:54:04;;;;;;;14.40;6.80;;;8.40;56.20;;;;;;5032083;28;20539;-84
2021/04/01 01:56:32;;;;;;;7.63;6.80;;;8.20;56.20;;;;;;5023717;28;20491;-82
2021/04/01 01:58:59;;;;;;;11.50;7.17;;;8.20;56.60;;;;;;5008860;28;20456;-82
2021/04/01 02:01:26;;;;;;;12.67;6.70;;;8.20;56.30;;;;;;5013851;28;20814;-83
2021/04/01 02:03:53;;;;;;;9.30;6.67;;;8.00;56.20;;;;;;5012020;28;20517;-83
2021/04/01 02:06:20;;;;;;;8.80;7.43;;;7.90;56.50;;;;;;5007634;28;20454;-82
2021/04/01 02:08:48;;;;;;;12.77;7.90;;;8.00;56.80;;;;;;5012339;28;20463;-82
2021/04/01 02:11:15;;;;;;;14.83;8.47;;;8.00;57.00;;;;;;5012493;28;20446;-82
2021/04/01 02:13:42;;;;;;;12.93;7.90;;;8.00;57.00;;;;;;5006647;28;20501;-82
2021/04/01 02:16:10;;;;;;;16.20;8.43;;;8.10;57.50;;;;;;5009329;28;20459;-83
2021/04/01 02:18:36;;;;;;;16.73;9.40;;;8.10;56.90;;;;;;5008788;28;20445;-82
2021/04/01 02:21:03;;;;;;;18.63;9.10;;;7.90;56.90;;;;;;5008342;28;20539;-82
2021/04/01 02:23:31;;;;;;;12.10;7.43;;;7.80;57.30;;;;;;5017862;28;20452;-82
2021/04/01 02:25:59;;;;;;;14.90;8.40;;;7.70;57.50;;;;;;5004290;28;20448;-82
2021/04/01 02:28:27;;;;;;;12.63;7.83;;;7.70;57.70;;;;;;5007102;28;20494;-83
2021/04/01 02:30:55;;;;;;;15.70;7.93;;;7.60;57.90;;;;;;5014685;28;20466;-83
2021/04/01 02:33:25;;;;;;;18.23;8.07;;;7.60;58.00;;;;;;5006189;28;20468;-82
2021/04/01 02:35:52;;;;;;;16.50;7.73;;;7.50;58.30;;;;;;5005837;28;20502;-83
2021/04/01 02:38:18;;;;;;;15.50;7.93;;;7.80;58.50;;;;;;5005345;28;20467;-83
2021/04/01 02:40:45;;;;;;;13.50;8.10;;;7.50;58.10;;;;;;5011677;28;20476;-83
2021/04/01 02:43:14;;;;;;;10.40;7.77;;;7.50;58.40;;;;;;5015876;28;20553;-83
2021/04/01 02:45:42;;;;;;;9.33;6.90;;;7.40;58.80;;;;;;5013558;28;20455;-83
2021/04/01 02:48:09;;;;;;;14.90;8.30;;;7.40;59.00;;;;;;5021972;28;20478;-82
2021/04/01 02:50:36;;;;;;;11.77;7.87;;;7.30;59.20;;;;;;5016495;28;20457;-82
2021/04/01 02:53:03;;;;;;;12.33;9.03;;;7.10;59.60;;;;;;5011951;28;20489;-82
2021/04/01 02:55:29;;;;;;;21.10;8.33;;;7.00;60.00;;;;;;5014211;28;20475;-83
2021/04/01 02:57:56;;;;;;;10.93;7.87;;;7.10;60.70;;;;;;5018168;28;20975;-83
2021/04/01 03:00:25;;;;;;;17.73;8.90;;;7.10;60.90;;;;;;5019087;28;20592;-83
2021/04/01 03:02:54;;;;;;;13.80;8.13;;;7.00;61.20;;;;;;5017690;28;20470;-82
2021/04/01 03:05:21;;;;;;;10.67;7.83;;;7.00;61.70;;;;;;5019380;28;20445;-82
2021/04/01 03:07:48;;;;;;;12.17;7.87;;;7.10;61.70;;;;;;5011443;28;20442;-83
2021/04/01 03:10:15;;;;;;;10.10;7.40;;;7.10;61.10;;;;;;5005848;28;20537;-84
2021/04/01 03:12:41;;;;;;;9.03;7.83;;;7.10;61.60;;;;;;5009226;28;20496;-84
2021/04/01 03:15:10;;;;;;;12.10;8.17;;;7.00;61.80;;;;;;5011587;28;20947;-83
2021/04/01 03:17:38;;;;;;;13.27;8.30;;;6.90;61.90;;;;;;5019022;28;20458;-82
2021/04/01 03:20:06;;;;;;;13.40;8.30;;;6.80;62.80;;;;;;5012690;28;20471;-83
2021/04/01 03:22:32;;;;;;;9.13;7.03;;;6.80;63.10;;;;;;5012957;28;20499;-82
2021/04/01 03:24:59;;;;;;;13.73;6.80;;;7.20;63.30;;;;;;5016008;28;20445;-83
2021/04/01 03:27:26;;;;;;;10.53;8.60;;;7.50;63.50;;;;;;5016630;28;20489;-83
2021/04/01 03:30:06;;;;;;;9.53;7.80;;;7.90;61.70;;;;;;5010201;28;20498;-81
2021/04/01 03:32:34;;;;;;;10.93;7.50;;;8.00;61.00;;;;;;5022822;28;20530;-83
2021/04/01 03:35:01;;;;;;;13.70;8.47;;;7.80;59.80;;;;;;5018290;28;20472;-85
2021/04/01 03:37:28;;;;;;;14.80;7.93;;;7.60;60.40;;;;;;5023430;28;20871;-84
2021/04/01 03:39:54;;;;;;;10.13;7.67;;;7.50;61.10;;;;;;5019157;28;20449;-82
2021/04/01 03:42:25;;;;;;;16.03;7.50;;;7.50;61.00;;;;;;5022597;28;20499;-83
2021/04/01 03:44:51;;;;;;;15.27;9.13;;;7.60;61.00;;;;;;5019169;28;20470;-82
2021/04/01 03:47:18;;;;;;;11.57;8.80;;;7.70;60.90;;;;;;5019251;28;20463;-83
2021/04/01 03:49:45;;;;;;;14.13;8.77;;;7.50;60.60;;;;;;5017895;28;20444;-83
2021/04/01 03:52:11;;;;;;;11.90;7.40;;;7.30;60.30;;;;;;5023062;28;20450;-83
2021/04/01 03:54:38;;;;;;;14.40;8.70;;;7.30;60.40;;;;;;5019801;28;20465;-83
2021/04/01 03:57:06;;;;;;;12.73;8.20;;;7.20;60.60;;;;;;5018624;28;20530;-83
2021/04/01 03:59:40;;;;;;;10.67;7.67;;;7.10;61.10;;;;;;5016872;28;20478;-83
2021/04/01 04:02:19;;;;;;;12.67;8.73;;;7.00;61.60;;;;;;5011763;28;20463;-82
2021/04/01 04:04:57;;;;;;;10.73;8.50;;;7.00;61.90;;;;;;5010739;28;20552;-83
2021/04/01 04:10:20;;;;;;;11.47;9.50;;;7.00;62.50;;;;;;5019722;28;20455;-83
2021/04/01 04:12:54;;;;;;;11.57;8.33;;;7.00;62.10;;;;;;5020866;28;20507;-84
2021/04/01 04:15:22;;;;;;;17.40;9.43;;;6.90;61.90;;;;;;5025968;28;20482;-83
2021/04/01 04:17:49;;;;;;;11.40;8.70;;;6.80;62.20;;;;;;5020807;28;20489;-83
2021/04/01 04:20:16;;;;;;;11.07;8.63;;;6.80;62.50;;;;;;5017363;28;20462;-84
2021/04/01 04:22:42;;;;;;;13.13;8.40;;;6.80;62.60;;;;;;5018201;28;20476;-83
2021/04/01 04:25:11;;;;;;;12.30;8.57;;;6.70;63.20;;;;;;5017732;28;20519;-84
2021/04/01 04:30:26;;;;;;;12.20;8.90;;;6.70;63.80;;;;;;5024086;28;20459;-82
2021/04/01 04:32:53;;;;;;;17.27;9.10;;;6.60;63.90;;;;;;5021088;28;20447;-82
2021/04/01 04:35:20;;;;;;;10.77;8.33;;;6.70;63.70;;;;;;5025033;28;20479;-83
2021/04/01 04:37:47;;;;;;;15.80;8.97;;;6.80;64.10;;;;;;5033684;28;20505;-82
2021/04/01 04:40:14;;;;;;;12.73;9.70;;;6.70;63.50;;;;;;5023026;28;20482;-84
2021/04/01 04:42:41;;;;;;;11.30;7.67;;;6.70;63.90;;;;;;5036861;28;20510;-84
2021/04/01 04:45:10;;;;;;;12.07;8.70;;;6.60;64.20;;;;;;5024251;28;20492;-83
2021/04/01 04:47:37;;;;;;;14.67;9.67;;;6.60;64.40;;;;;;5025793;28;20447;-84
2021/04/01 04:50:05;;;;;;;13.73;8.67;;;6.80;64.20;;;;;;5036618;28;20542;-84
2021/04/01 04:52:33;;;;;;;14.53;9.20;;;6.80;64.30;;;;;;5029948;28;20526;-83
2021/04/01 04:55:01;;;;;;;19.60;9.53;;;6.80;64.20;;;;;;5029403;28;20447;-83
2021/04/01 04:57:32;;;;;;;10.37;8.97;;;6.70;63.80;;;;;;5029184;28;20455;-84
2021/04/01 05:05:34;;;;;;;15.97;9.13;;;6.80;63.70;;;;;;5023559;28;20451;-83
2021/04/01 05:08:01;;;;;;;14.80;9.97;;;6.90;63.60;;;;;;5021302;28;20453;-83
2021/04/01 05:10:28;;;;;;;15.00;8.73;;;7.00;63.70;;;;;;5017216;28;20482;-84
2021/04/01 05:13:11;;;;;;;13.43;8.93;;;7.10;63.80;;;;;;5013393;28;20452;-84
2021/04/01 05:15:40;;;;;;;12.63;8.80;;;7.10;63.00;;;;;;5009489;28;20458;-84
2021/04/01 05:18:23;;;;;;;14.50;8.63;;;7.00;62.90;;;;;;5009981;28;20477;-84
2021/04/01 05:20:52;;;;;;;14.60;9.17;;;7.00;63.20;;;;;;5015772;28;20462;-84
2021/04/01 05:23:26;;;;;;;16.30;9.63;;;7.10;63.20;;;;;;5017084;28;21024;-83
2021/04/01 05:26:03;;;;;;;13.17;9.70;;;7.00;62.90;;;;;;5010613;28;20457;-83
2021/04/01 05:28:32;;;;;;;9.90;8.90;;;7.10;63.00;;;;;;5019099;28;20470;-84
2021/04/01 05:31:01;;;;;;;12.57;9.73;;;7.10;62.90;;;;;;5014981;28;20476;-85
2021/04/01 05:33:33;;;;;;;14.90;10.00;;;7.20;62.90;;;;;;5018626;28;20448;-82
2021/04/01 05:36:00;;;;;;;21.27;9.80;;;7.30;62.70;;;;;;5014969;28;20482;-84
2021/04/01 05:38:27;;;;;;;37.87;10.00;;;7.40;62.10;;;;;;5012740;28;20466;-84
2021/04/01 05:40:54;;;;;;;19.47;9.27;;;7.50;62.30;;;;;;5017328;28;20467;-84
2021/04/01 05:43:23;;;;;;;14.20;9.87;;;7.50;61.60;;;;;;5016251;28;20466;-84
2021/04/01 05:45:52;;;;;;;14.97;10.13;;;7.60;61.30;;;;;;5014676;28;20514;-83
2021/04/01 05:48:30;;;;;;;35.20;13.00;;;7.60;61.60;;;;;;5009042;28;20460;-83
2021/04/01 05:59:38;;;;;;;21.07;10.23;;;8.00;60.70;;;;;;4981877;28;20717;-85
2021/04/01 06:02:17;;;;;;;16.93;9.80;;;8.20;59.70;;;;;;5004045;28;20458;-85
2021/04/01 06:04:51;;;;;;;14.60;9.97;;;8.30;59.90;;;;;;5005012;28;20502;-84
2021/04/01 06:07:26;;;;;;;16.60;11.30;;;8.40;59.40;;;;;;5007414;28;20455;-84
2021/04/01 06:09:57;;;;;;;20.90;10.77;;;8.60;58.60;;;;;;5002200;28;20459;-83
2021/04/01 06:12:30;;;;;;;15.07;9.53;;;8.70;58.80;;;;;;5004123;28;20453;-83
2021/04/01 06:15:01;;;;;;;16.00;10.07;;;8.80;58.90;;;;;;5006767;28;20529;-84
2021/04/01 06:17:29;;;;;;;15.67;10.00;;;8.90;57.80;;;;;;5005185;28;20479;-84
2021/04/01 06:19:58;;;;;;;16.10;10.73;;;8.90;58.10;;;;;;5009299;28;20468;-87
2021/04/01 06:22:28;;;;;;;16.00;12.23;;;9.10;57.80;;;;;;5006166;28;20458;-79
2021/04/01 06:24:55;;;;;;;19.97;12.27;;;9.10;57.70;;;;;;5010225;28;20231;-77
2021/04/01 06:27:31;;;;;;;17.47;11.20;;;9.10;57.40;;;;;;5006266;28;20551;-77
2021/04/01 06:30:14;;;;;;;32.93;11.77;;;9.20;57.20;;;;;;5006084;28;20445;-81
2021/04/01 06:32:44;;;;;;;18.33;10.67;;;9.30;57.00;;;;;;5010765;28;20448;-81
2021/04/01 06:35:14;;;;;;;22.10;10.67;;;9.40;56.60;;;;;;5011162;28;20498;-79
2021/04/01 06:38:06;;;;;;;21.10;11.37;;;9.60;56.80;;;;;;5002422;28;20488;-78
2021/04/01 06:40:36;;;;;;;13.83;10.90;;;9.80;56.20;;;;;;5007983;28;20455;-79
2021/04/01 06:43:09;;;;;;;21.73;11.70;;;9.90;55.80;;;;;;5010671;28;20565;-78
2021/04/01 06:45:37;;;;;;;19.37;11.30;;;10.10;54.50;;;;;;5007548;28;20539;-79
2021/04/01 06:48:07;;;;;;;21.80;11.40;;;10.20;54.40;;;;;;5007111;28;20452;-77
2021/04/01 06:50:35;;;;;;;25.40;11.63;;;10.30;54.10;;;;;;5007829;28;20494;-79
2021/04/01 06:53:05;;;;;;;22.43;12.00;;;10.50;53.80;;;;;;5014390;28;20456;-78
2021/04/01 06:55:34;;;;;;;18.63;11.23;;;10.60;53.40;;;;;;5017098;28;20490;-78
2021/04/01 06:58:20;;;;;;;22.27;13.33;;;10.70;53.40;;;;;;5010347;28;20493;-78
2021/04/01 07:01:00;;;;;;;16.83;11.17;;;10.90;53.10;;;;;;5015576;28;20531;-80
2021/04/01 07:03:38;;;;;;;25.90;13.00;;;11.10;52.80;;;;;;5022009;28;20476;-86
2021/04/01 07:06:07;;;;;;;16.60;11.50;;;11.30;52.60;;;;;;5024854;28;20491;-82
2021/04/01 07:08:42;;;;;;;21.17;11.40;;;11.40;52.30;;;;;;5022761;28;20450;-82
2021/04/01 07:11:09;;;;;;;17.53;11.87;;;11.50;52.00;;;;;;5029954;28;20499;-81
2021/04/01 07:13:43;;;;;;;19.83;12.43;;;11.70;51.70;;;;;;5028072;28;20452;-80
2021/04/01 07:16:19;;;;;;;22.00;12.57;;;11.90;51.50;;;;;;5027664;28;20458;-79
2021/04/01 07:35:51;;;;;;;18.20;11.90;;;13.50;49.20;;;;;;5034464;28;20444;-86
2021/04/01 07:46:43;;;;;;;16.83;11.60;;;14.40;48.20;;;;;;5032357;28;20456;-87
2021/04/01 07:49:17;;;;;;;29.73;15.50;;;14.60;47.60;;;;;;5039131;28;20462;-84
2021/04/01 07:51:58;;;;;;;19.10;12.40;;;14.90;47.40;;;;;;5021242;28;20440;-86
2021/04/01 07:54:27;;;;;;;22.77;12.77;;;15.10;47.20;;;;;;5029937;28;20572;-86
2021/04/01 07:57:18;;;;;;;21.55;12.75;;;15.30;46.80;;;;;;5027723;28;20406;-86
2021/04/01 07:59:53;;;;;;;18.63;12.40;;;15.50;46.80;;;;;;5039992;28;20233;-86
2021/04/01 08:02:30;;;;;;;21.67;13.87;;;15.50;46.10;;;;;;5032327;28;20540;-87
2021/04/01 08:04:59;;;;;;;20.80;14.33;;;15.70;46.20;;;;;;5041668;28;20440;-84
2021/04/01 08:07:32;;;;;;;23.90;13.97;;;15.60;46.00;;;;;;5033630;28;20521;-83
2021/04/01 08:10:05;;;;;;;24.90;14.60;;;15.90;45.60;;;;;;5029480;28;20468;-86
2021/04/01 08:12:46;;;;;;;20.03;13.93;;;15.80;45.50;;;;;;5028644;28;20227;-86
2021/04/01 08:15:16;;;;;;;26.30;14.47;;;15.70;45.50;;;;;;5018919;28;20476;-83
2021/04/01 08:17:50;;;;;;;25.33;15.13;;;15.90;45.50;;;;;;5020015;28;20492;-86
2021/04/01 08:20:21;;;;;;;26.67;13.00;;;16.20;45.30;;;;;;5024287;28;20480;-84
2021/04/01 08:23:03;;;;;;;30.70;15.30;;;16.60;45.00;;;;;;5014850;28;20465;-85
2021/04/01 08:25:36;;;;;;;33.07;15.87;;;16.80;44.70;;;;;;5028955;28;20457;-85
2021/04/01 08:31:30;;;;;;;26.97;15.90;;;17.30;44.30;;;;;;5022260;28;20450;-84
2021/04/01 08:34:00;;;;;;;20.77;15.27;;;17.60;43.90;;;;;;5013573;28;20467;-84
2021/04/01 08:36:27;;;;;;;31.53;15.43;;;18.10;43.90;;;;;;5027474;28;20482;-85
2021/04/01 08:38:55;;;;;;;24.30;15.33;;;18.60;43.40;;;;;;5021131;28;20467;-83
2021/04/01 08:41:47;;;;;;;41.47;16.80;;;19.10;43.10;;;;;;5016068;28;20978;-81
2021/04/01 08:44:38;;;;;;;32.87;15.80;;;19.50;42.80;;;;;;5025530;28;20467;-80
2021/04/01 08:47:23;;;;;;;28.13;16.27;;;19.50;42.70;;;;;;5019473;28;20460;-82
2021/04/01 08:49:56;;;;;;;22.17;15.88;;;19.10;42.80;;;;;;5016971;28;20542;-82
2021/04/01 08:52:56;;;;;;;21.37;14.20;;;19.10;42.90;;;;;;5014260;28;20268;-81
2021/04/01 08:55:31;;;;;;;23.67;14.57;;;19.20;42.70;;;;;;5019947;28;20899;-80
2021/04/01 08:58:03;;;;;;;21.37;15.20;;;18.90;42.70;;;;;;5019363;28;20491;-79
2021/04/01 09:00:32;;;;;;;19.70;14.47;;;18.60;43.00;;;;;;5020394;28;20561;-80
2021/04/01 09:02:59;;;;;;;24.70;15.20;;;18.50;42.90;;;;;;5021321;28;20452;-80
2021/04/01 09:05:26;;;;;;;23.00;15.17;;;18.60;43.30;;;;;;5020827;28;20205;-80
2021/04/01 09:07:57;;;;;;;19.70;13.30;;;18.60;43.20;;;;;;5015998;28;20476;-80
2021/04/01 09:10:26;;;;;;;24.67;15.80;;;18.30;43.40;;;;;;5014972;28;20462;-80
2021/04/01 09:12:55;;;;;;;33.27;15.87;;;18.40;43.60;;;;;;5013340;28;20460;-81
2021/04/01 09:15:32;;;;;;;28.67;15.00;;;18.30;43.90;;;;;;5016526;28;20468;-81
2021/04/01 09:17:59;;;;;;;25.33;15.80;;;18.30;44.00;;;;;;5019911;28;20448;-82
2021/04/01 09:20:29;;;;;;;28.20;14.60;;;18.30;44.00;;;;;;5023283;28;20498;-82
2021/04/01 09:22:59;;;;;;;27.20;15.70;;;18.40;44.30;;;;;;5034401;28;20497;-82
2021/04/01 09:25:36;;;;;;;23.63;14.80;;;18.60;44.20;;;;;;5023577;28;20462;-82
2021/04/01 09:28:05;;;;;;;24.30;15.13;;;18.70;43.90;;;;;;5025159;28;20440;-84
2021/04/01 09:30:31;;;;;;;23.53;15.40;;;18.50;44.10;;;;;;5015657;28;20454;-84
2021/04/01 09:33:02;;;;;;;22.37;14.80;;;18.40;44.00;;;;;;5017421;28;20458;-84
2021/04/01 09:35:35;;;;;;;24.00;14.13;;;18.50;44.00;;;;;;5017873;28;21285;-82
2021/04/01 09:38:06;;;;;;;23.37;16.00;;;18.50;44.10;;;;;;5013731;28;20479;-82
2021/04/01 09:40:34;;;;;;;22.60;15.60;;;18.70;44.40;;;;;;5027131;28;20464;-83
2021/04/01 09:43:13;;;;;;;24.97;16.80;;;18.80;44.40;;;;;;5026126;28;20479;-80
2021/04/01 09:45:40;;;;;;;27.67;16.23;;;18.80;44.40;;;;;;5019381;28;20516;-83
2021/04/01 09:48:09;;;;;;;30.40;16.67;;;18.80;44.30;;;;;;5019111;28;20461;-82
2021/04/01 09:50:39;;;;;;;27.30;17.03;;;18.90;44.10;;;;;;5031629;28;20445;-79
2021/04/01 09:53:12;;;;;;;22.67;16.50;;;18.90;43.90;;;;;;5022259;28;20527;-83
2021/04/01 09:55:43;;;;;;;26.30;17.70;;;19.10;44.10;;;;;;5023600;28;20462;-82
2021/04/01 09:58:19;;;;;;;22.57;17.10;;;19.20;43.80;;;;;;5025217;28;20467;-82
2021/04/01 10:03:39;;;;;;;25.10;16.70;;;19.50;43.80;;;;;;5022474;28;20503;-80
2021/04/01 10:06:05;;;;;;;26.43;17.53;;;19.70;44.10;;;;;;5018879;28;20591;-80
2021/04/01 10:08:33;;;;;;;24.33;16.57;;;19.80;43.60;;;;;;5026649;28;20478;-81
2021/04/01 10:11:01;;;;;;;24.52;17.73;;;19.60;43.20;;;;;;5017677;28;20466;-83
2021/04/01 10:13:30;;;;;;;24.40;18.07;;;19.60;43.30;;;;;;5028553;28;20280;-82
2021/04/01 10:16:01;;;;;;;24.67;17.47;;;19.80;43.10;;;;;;5028449;28;20446;-85
2021/04/01 10:18:31;;;;;;;32.95;18.80;;;19.80;43.30;;;;;;5029656;28;20450;-80
2021/04/01 10:21:01;;;;;;;24.10;17.50;;;20.20;43.30;;;;;;5028985;28;20205;-86
2021/04/01 10:23:30;;;;;;;25.00;18.43;;;20.10;42.50;;;;;;5041401;28;20494;-81
2021/04/01 10:26:06;;;;;;;31.10;19.10;;;20.30;42.40;;;;;;5027614;28;20459;-84
2021/04/01 10:28:42;;;;;;;24.83;16.90;;;20.10;42.60;;;;;;5028949;28;20458;-81
2021/04/01 10:31:15;;;;;;;22.83;18.17;;;20.50;42.80;;;;;;5016490;28;20447;-84
2021/04/01 10:34:14;;;;;;;25.53;17.13;;;20.20;42.60;;;;;;5018239;28;20602;-84
2021/04/01 10:36:42;;;;;;;30.43;19.13;;;20.70;43.00;;;;;;5018773;28;20483;-79
2021/04/01 10:39:10;;;;;;;25.17;19.13;;;20.90;42.60;;;;;;5016374;28;20451;-81
2021/04/01 10:41:49;;;;;;;24.30;17.67;;;21.50;42.70;;;;;;5012467;28;20226;-82
2021/04/01 10:44:16;;;;;;;28.23;17.92;;;21.60;42.30;;;;;;5011799;28;20555;-82
2021/04/01 10:46:49;;;;;;;28.10;18.77;;;22.10;42.20;;;;;;5017597;28;20495;-80
2021/04/01 10:49:20;;;;;;;26.63;18.67;;;22.10;41.70;;;;;;5014776;28;20331;-81
2021/04/01 10:51:55;;;;;;;23.17;19.20;;;22.30;42.00;;;;;;5011639;28;20453;-80
2021/04/01 10:54:24;;;;;;;25.70;18.87;;;22.70;41.80;;;;;;5013666;28;20280;-85
2021/04/01 10:56:54;;;;;;;28.80;19.70;;;22.80;41.70;;;;;;5017839;28;20996;-80
2021/04/01 11:03:23;;;;;;;24.70;18.23;;;22.70;40.90;;;;;;5025215;28;20471;-80
2021/04/01 11:05:51;;;;;;;26.03;18.20;;;22.50;41.20;;;;;;5020346;28;20871;-80
2021/04/01 11:08:21;;;;;;;26.48;18.65;;;22.10;41.50;;;;;;5031725;28;20454;-80
2021/04/01 11:10:57;;;;;;;24.03;18.90;;;22.00;41.20;;;;;;5019177;28;20213;-79
2021/04/01 11:13:30;;;;;;;23.83;18.70;;;22.00;41.40;;;;;;5019800;28;20688;-79
2021/04/01 11:15:58;;;;;;;28.90;18.97;;;21.90;40.70;;;;;;5020829;28;20462;-79
2021/04/01 11:18:27;;;;;;;22.13;19.07;;;21.90;40.70;;;;;;5015168;28;20463;-79
2021/04/01 11:20:55;;;;;;;24.90;19.07;;;21.80;41.10;;;;;;5009129;28;20507;-80
2021/04/01 11:23:25;;;;;;;24.47;19.87;;;21.80;40.50;;;;;;5015243;28;20570;-79
2021/04/01 11:25:53;;;;;;;21.87;17.93;;;22.50;40.90;;;;;;5024901;28;20449;-79
2021/04/01 11:28:20;;;;;;;24.60;18.17;;;23.00;40.70;;;;;;5024129;28;20451;-79
2021/04/01 11:30:49;;;;;;;30.70;18.97;;;22.50;40.20;;;;;;5024168;28;20453;-79
2021/04/01 11:33:18;;;;;;;25.63;18.73;;;22.70;40.50;;;;;;5036943;28;20466;-80
2021/04/01 11:35:48;;;;;;;24.73;16.97;;;23.00;40.50;;;;;;5032664;28;20458;-82
2021/04/01 11:38:21;;;;;;;22.50;18.10;;;23.30;39.70;;;;;;5032607;28;21028;-80
2021/04/01 11:40:57;;;;;;;22.53;18.10;;;23.80;39.30;;;;;;5016435;28;20474;-79
2021/04/01 11:43:26;;;;;;;22.03;17.20;;;23.90;38.80;;;;;;5022802;28;20490;-82
2021/04/01 11:45:52;;;;;;;26.50;16.97;;;23.70;38.90;;;;;;5030634;28;20452;-79
2021/04/01 11:48:19;;;;;;;20.20;16.67;;;23.70;39.20;;;;;;5036953;28;20471;-79
2021/04/01 11:50:46;;;;;;;19.80;16.07;;;23.90;39.30;;;;;;5035629;28;20440;-81
2021/04/01 11:53:13;;;;;;;21.17;16.87;;;23.60;39.10;;;;;;5028954;28;20498;-80
2021/04/01 11:55:49;;;;;;;19.13;16.63;;;23.50;39.10;;;;;;5023382;28;20511;-80
2021/04/01 11:58:17;;;;;;;21.00;16.27;;;23.00;38.70;;;;;;5018915;28;20582;-80
2021/04/01 12:00:44;;;;;;;20.47;16.97;;;23.00;38.90;;;;;;5036460;28;20462;-82
2021/04/01 12:03:14;;;;;;;24.07;18.30;;;23.00;39.20;;;;;;5022546;28;20563;-80
2021/04/01 12:05:44;;;;;;;23.50;19.27;;;22.80;39.20;;;;;;5028089;28;20760;-79
2021/04/01 12:08:11;;;;;;;22.37;17.83;;;23.50;39.40;;;;;;5017237;28;20451;-79
2021/04/01 12:10:39;;;;;;;24.03;18.70;;;23.40;39.60;;;;;;5028731;28;20479;-81
2021/04/01 12:13:06;;;;;;;22.07;17.87;;;23.20;39.50;;;;;;5027555;28;20455;-79
2021/04/01 12:15:35;;;;;;;26.47;19.50;;;23.10;39.80;;;;;;5024096;28;20447;-81
2021/04/01 12:18:04;;;;;;;22.90;18.23;;;22.80;39.20;;;;;;5017033;28;20456;-82
2021/04/01 12:20:31;;;;;;;22.57;17.97;;;22.80;39.20;;;;;;5023479;28;20542;-82
2021/04/01 12:23:08;;;;;;;19.67;17.07;;;22.80;39.00;;;;;;5015300;28;20978;-79
2021/04/01 12:25:36;;;;;;;20.93;17.33;;;22.70;38.80;;;;;;5014789;28;20881;-79
2021/04/01 12:28:02;;;;;;;22.63;18.33;;;22.70;38.90;;;;;;5014817;28;20937;-81
2021/04/01 12:30:35;;;;;;;20.27;17.60;;;22.40;38.70;;;;;;5014460;28;20511;-81
2021/04/01 12:33:10;;;;;;;19.35;17.05;;;22.40;38.40;;;;;;5009101;28;20458;-80
2021/04/01 12:35:48;;;;;;;21.17;17.77;;;22.80;38.70;;;;;;5013782;28;20449;-80
2021/04/01 12:38:28;;;;;;;31.00;18.90;;;23.10;38.50;;;;;;4996843;28;20486;-81
2021/04/01 12:40:55;;;;;;;21.67;17.50;;;23.40;38.70;;;;;;5009144;28;20445;-82
2021/04/01 12:43:33;;;;;;;20.90;17.37;;;23.10;38.60;;;;;;5016050;28;20503;-80
2021/04/01 12:45:59;;;;;;;22.57;18.50;;;22.90;38.60;;;;;;5012405;28;20512;-80
2021/04/01 12:48:37;;;;;;;23.73;17.50;;;22.90;39.00;;;;;;5011335;28;20824;-80
2021/04/01 12:51:05;;;;;;;23.02;19.23;;;22.90;38.90;;;;;;5015383;28;20477;-83
2021/04/01 12:53:31;;;;;;;20.92;18.67;;;22.70;38.80;;;;;;5023038;28;20478;-84
2021/04/01 12:56:01;;;;;;;23.00;20.35;;;22.60;39.00;;;;;;5023197;28;20459;-80
2021/04/01 12:58:32;;;;;;;24.83;18.20;;;22.60;39.10;;;;;;5022096;28;20199;-81
2021/04/01 13:01:03;;;;;;;21.73;19.00;;;22.40;39.10;;;;;;5025027;28;20449;-82
2021/04/01 13:03:31;;;;;;;21.63;18.00;;;22.60;39.10;;;;;;5021209;28;20468;-82
2021/04/01 13:06:01;;;;;;;20.07;17.77;;;22.60;39.20;;;;;;5023183;28;20444;-80
2021/04/01 13:11:16;;;;;;;26.63;18.70;;;22.70;39.50;;;;;;5014821;28;21072;-82
2021/04/01 13:13:43;;;;;;;24.27;17.50;;;22.50;39.20;;;;;;5018262;28;20448;-80
2021/04/01 13:16:09;;;;;;;21.90;18.25;;;22.20;38.90;;;;;;5018936;28;20522;-86
2021/04/01 13:18:36;;;;;;;20.83;17.10;;;21.90;38.90;;;;;;5025782;28;20468;-79
2021/04/01 13:21:04;;;;;;;20.52;17.70;;;21.90;39.20;;;;;;5022170;28;20445;-82
2021/04/01 13:23:43;;;;;;;22.87;16.63;;;22.20;39.00;;;;;;5030549;28;20201;-82
2021/04/01 13:26:13;;;;;;;18.57;16.40;;;22.40;38.60;;;;;;5035016;28;20475;-82
2021/04/01 13:28:42;;;;;;;17.00;14.20;;;22.70;39.00;;;;;;5035730;28;20499;-78
2021/04/01 13:31:15;;;;;;;20.23;14.27;;;22.70;37.90;;;;;;5024608;28;20448;-83
2021/04/01 13:33:49;;;;;;;15.53;13.67;;;22.90;37.90;;;;;;5024989;28;20479;-82
2021/04/01 13:36:21;;;;;;;13.30;11.00;;;23.10;37.60;;;;;;5025983;28;20548;-85
2021/04/01 13:38:50;;;;;;;14.17;9.53;;;23.10;36.40;;;;;;5024174;28;20460;-84
2021/04/01 13:41:21;;;;;;;11.85;9.18;;;22.90;35.60;;;;;;5022398;28;20447;-83
2021/04/01 13:43:49;;;;;;;16.50;10.17;;;22.80;35.50;;;;;;5022102;28;20301;-83
2021/04/01 13:46:16;;;;;;;14.13;11.43;;;22.40;35.70;;;;;;5023514;28;20464;-83
2021/04/01 13:48:45;;;;;;;15.53;11.30;;;22.10;36.00;;;;;;5021975;28;20463;-80
2021/04/01 13:51:15;;;;;;;12.13;10.90;;;22.00;36.10;;;;;;5024794;28;20464;-82